sensor_id;sensor_type;location;lat;lon;timestamp;temperature;humidity
488;DHT22;16586;48.976;9.584;2023-02-24T00:00:04;11.70;75.70
488;DHT22;16586;48.976;9.584;2023-02-24T00:02:57;11.70;75.50
488;DHT22;16586;48.976;9.584;2023-02-24T00:05:24;12.10;77.00
488;DHT22;16586;48.976;9.584;2023-02-24T00:07:50;11.40;79.70
488;DHT22;16586;48.976;9.584;2023-02-24T00:10:17;11.50;78.20
488;DHT22;16586;48.976;9.584;2023-02-24T00:12:46;11.80;77.90
488;DHT22;16586;48.976;9.584;2023-02-24T00:15:15;12.20;80.20
488;DHT22;16586;48.976;9.584;2023-02-24T00:17:42;11.40;76.70
488;DHT22;16586;48.976;9.584;2023-02-24T00:20:11;11.60;79.20
488;DHT22;16586;48.976;9.584;2023-02-24T00:22:38;11.70;76.20
488;DHT22;16586;48.976;9.584;2023-02-24T00:25:05;12.10;77.70
488;DHT22;16586;48.976;9.584;2023-02-24T00:27:32;11.30;77.10
488;DHT22;16586;48.976;9.584;2023-02-24T00:29:59;11.30;79.10
488;DHT22;16586;48.976;9.584;2023-02-24T00:32:31;10.70;77.30
488;DHT22;16586;48.976;9.584;2023-02-24T00:35:00;10.60;75.50
488;DHT22;16586;48.976;9.584;2023-02-24T00:37:26;12.00;80.60
488;DHT22;16586;48.976;9.584;2023-02-24T00:39:54;11.70;79.30
488;DHT22;16586;48.976;9.584;2023-02-24T00:42:23;12.10;80.30
488;DHT22;16586;48.976;9.584;2023-02-24T00:44:50;11.30;79.00
488;DHT22;16586;48.976;9.584;2023-02-24T00:47:18;11.40;77.70
488;DHT22;16586;48.976;9.584;2023-02-24T00:49:48;12.10;78.10
488;DHT22;16586;48.976;9.584;2023-02-24T00:52:17;11.40;78.10
488;DHT22;16586;48.976;9.584;2023-02-24T00:54:45;11.40;77.80
488;DHT22;16586;48.976;9.584;2023-02-24T00:57:12;11.30;78.90
488;DHT22;16586;48.976;9.584;2023-02-24T00:59:40;11.50;78.50
488;DHT22;16586;48.976;9.584;2023-02-24T01:02:12;11.50;77.20
488;DHT22;16586;48.976;9.584;2023-02-24T01:04:39;11.70;78.00
488;DHT22;16586;48.976;9.584;2023-02-24T01:07:07;12.20;80.10
488;DHT22;16586;48.976;9.584;2023-02-24T01:09:36;11.60;77.40
488;DHT22;16586;48.976;9.584;2023-02-24T01:12:05;11.30;78.40
488;DHT22;16586;48.976;9.584;2023-02-24T01:14:58;11.50;78.70
488;DHT22;16586;48.976;9.584;2023-02-24T01:17:27;11.30;75.30
488;DHT22;16586;48.976;9.584;2023-02-24T01:19:54;11.70;79.30
488;DHT22;16586;48.976;9.584;2023-02-24T01:22:26;11.40;77.50
488;DHT22;16586;48.976;9.584;2023-02-24T01:24:52;11.90;77.00
488;DHT22;16586;48.976;9.584;2023-02-24T01:27:19;11.80;77.60
488;DHT22;16586;48.976;9.584;2023-02-24T01:29:47;11.30;77.00
488;DHT22;16586;48.976;9.584;2023-02-24T01:32:16;11.80;78.90
488;DHT22;16586;48.976;9.584;2023-02-24T01:34:43;11.30;76.40
488;DHT22;16586;48.976;9.584;2023-02-24T01:37:10;12.00;78.20
488;DHT22;16586;48.976;9.584;2023-02-24T01:39:42;11.10;76.00
488;DHT22;16586;48.976;9.584;2023-02-24T01:42:11;11.40;77.10
488;DHT22;16586;48.976;9.584;2023-02-24T01:45:06;11.20;77.80
488;DHT22;16586;48.976;9.584;2023-02-24T01:47:37;11.50;76.80
488;DHT22;16586;48.976;9.584;2023-02-24T01:50:04;11.30;76.80
488;DHT22;16586;48.976;9.584;2023-02-24T01:52:34;11.50;77.50
488;DHT22;16586;48.976;9.584;2023-02-24T01:55:06;12.00;77.90
488;DHT22;16586;48.976;9.584;2023-02-24T01:57:36;11.30;78.30
488;DHT22;16586;48.976;9.584;2023-02-24T02:00:05;11.80;77.90
488;DHT22;16586;48.976;9.584;2023-02-24T02:02:37;11.50;79.30
488;DHT22;16586;48.976;9.584;2023-02-24T02:05:08;11.60;78.10
488;DHT22;16586;48.976;9.584;2023-02-24T02:07:36;11.40;79.20
488;DHT22;16586;48.976;9.584;2023-02-24T02:10:06;11.90;78.60
488;DHT22;16586;48.976;9.584;2023-02-24T02:12:36;11.40;78.50
488;DHT22;16586;48.976;9.584;2023-02-24T02:15:09;11.80;80.30
488;DHT22;16586;48.976;9.584;2023-02-24T02:17:42;11.80;79.10
488;DHT22;16586;48.976;9.584;2023-02-24T02:23:33;11.50;78.60
488;DHT22;16586;48.976;9.584;2023-02-24T02:26:45;11.80;79.60
488;DHT22;16586;48.976;9.584;2023-02-24T02:29:36;11.60;76.90
488;DHT22;16586;48.976;9.584;2023-02-24T02:32:22;11.50;76.70
488;DHT22;16586;48.976;9.584;2023-02-24T02:35:02;11.80;78.30
488;DHT22;16586;48.976;9.584;2023-02-24T02:37:35;11.30;79.60
488;DHT22;16586;48.976;9.584;2023-02-24T02:40:12;11.20;79.00
488;DHT22;16586;48.976;9.584;2023-02-24T02:42:49;11.60;80.00
488;DHT22;16586;48.976;9.584;2023-02-24T02:45:23;11.50;78.90
488;DHT22;16586;48.976;9.584;2023-02-24T02:47:55;12.00;79.50
488;DHT22;16586;48.976;9.584;2023-02-24T02:50:28;11.20;77.50
488;DHT22;16586;48.976;9.584;2023-02-24T02:52:59;11.20;78.30
488;DHT22;16586;48.976;9.584;2023-02-24T02:55:32;11.70;80.40
488;DHT22;16586;48.976;9.584;2023-02-24T02:58:02;11.20;77.40
488;DHT22;16586;48.976;9.584;2023-02-24T03:00:32;11.90;80.10
488;DHT22;16586;48.976;9.584;2023-02-24T03:03:05;11.30;79.90
488;DHT22;16586;48.976;9.584;2023-02-24T03:05:38;12.50;80.80
488;DHT22;16586;48.976;9.584;2023-02-24T03:08:13;11.10;78.80
488;DHT22;16586;48.976;9.584;2023-02-24T03:10:41;11.70;78.90
488;DHT22;16586;48.976;9.584;2023-02-24T03:13:10;11.10;77.50
488;DHT22;16586;48.976;9.584;2023-02-24T03:15:41;11.60;79.70
488;DHT22;16586;48.976;9.584;2023-02-24T03:18:14;11.30;79.40
488;DHT22;16586;48.976;9.584;2023-02-24T03:20:48;11.30;79.80
488;DHT22;16586;48.976;9.584;2023-02-24T03:23:18;11.00;78.50
488;DHT22;16586;48.976;9.584;2023-02-24T03:25:50;11.60;78.70
488;DHT22;16586;48.976;9.584;2023-02-24T03:28:23;11.00;77.10
488;DHT22;16586;48.976;9.584;2023-02-24T03:30:57;11.00;76.90
488;DHT22;16586;48.976;9.584;2023-02-24T03:33:32;11.50;78.10
488;DHT22;16586;48.976;9.584;2023-02-24T03:36:02;11.30;79.40
488;DHT22;16586;48.976;9.584;2023-02-24T03:38:32;11.10;78.10
488;DHT22;16586;48.976;9.584;2023-02-24T03:41:03;10.90;77.80
488;DHT22;16586;48.976;9.584;2023-02-24T03:43:38;11.00;78.30
488;DHT22;16586;48.976;9.584;2023-02-24T03:46:06;11.40;80.10
488;DHT22;16586;48.976;9.584;2023-02-24T03:48:38;11.50;79.80
488;DHT22;16586;48.976;9.584;2023-02-24T03:51:11;11.10;80.10
488;DHT22;16586;48.976;9.584;2023-02-24T03:53:47;10.80;78.00
488;DHT22;16586;48.976;9.584;2023-02-24T03:56:27;11.70;80.30
488;DHT22;16586;48.976;9.584;2023-02-24T03:59:05;11.20;78.80
488;DHT22;16586;48.976;9.584;2023-02-24T04:01:41;11.10;78.20
488;DHT22;16586;48.976;9.584;2023-02-24T04:04:18;11.30;77.80
488;DHT22;16586;48.976;9.584;2023-02-24T04:06:56;11.10;77.50
488;DHT22;16586;48.976;9.584;2023-02-24T04:09:28;11.10;77.00
488;DHT22;16586;48.976;9.584;2023-02-24T04:12:05;11.60;78.20
488;DHT22;16586;48.976;9.584;2023-02-24T04:14:39;11.20;77.80
488;DHT22;16586;48.976;9.584;2023-02-24T04:17:13;10.90;76.70
488;DHT22;16586;48.976;9.584;2023-02-24T04:19:46;11.20;78.00
488;DHT22;16586;48.976;9.584;2023-02-24T04:22:17;11.80;78.50
488;DHT22;16586;48.976;9.584;2023-02-24T04:24:50;11.20;78.50
488;DHT22;16586;48.976;9.584;2023-02-24T04:27:18;11.00;76.90
488;DHT22;16586;48.976;9.584;2023-02-24T04:29:49;11.00;78.20
488;DHT22;16586;48.976;9.584;2023-02-24T04:32:20;11.00;78.20
488;DHT22;16586;48.976;9.584;2023-02-24T04:34:48;11.20;79.60
488;DHT22;16586;48.976;9.584;2023-02-24T04:37:16;11.40;79.30
488;DHT22;16586;48.976;9.584;2023-02-24T04:39:47;11.80;79.40
488;DHT22;16586;48.976;9.584;2023-02-24T04:42:15;11.00;78.00
488;DHT22;16586;48.976;9.584;2023-02-24T04:44:44;11.60;79.60
488;DHT22;16586;48.976;9.584;2023-02-24T04:47:11;11.70;78.90
488;DHT22;16586;48.976;9.584;2023-02-24T04:49:38;11.60;78.80
488;DHT22;16586;48.976;9.584;2023-02-24T04:52:05;11.00;77.20
488;DHT22;16586;48.976;9.584;2023-02-24T04:54:35;10.70;77.10
488;DHT22;16586;48.976;9.584;2023-02-24T04:57:02;10.90;77.20
488;DHT22;16586;48.976;9.584;2023-02-24T04:59:30;11.10;78.50
488;DHT22;16586;48.976;9.584;2023-02-24T05:01:57;10.80;80.50
488;DHT22;16586;48.976;9.584;2023-02-24T05:04:26;10.90;78.80
488;DHT22;16586;48.976;9.584;2023-02-24T05:06:55;11.30;78.80
488;DHT22;16586;48.976;9.584;2023-02-24T05:09:22;11.90;80.90
488;DHT22;16586;48.976;9.584;2023-02-24T05:11:56;11.30;78.90
488;DHT22;16586;48.976;9.584;2023-02-24T05:14:23;10.60;77.70
488;DHT22;16586;48.976;9.584;2023-02-24T05:16:51;10.90;77.60
488;DHT22;16586;48.976;9.584;2023-02-24T05:19:24;11.60;79.90
488;DHT22;16586;48.976;9.584;2023-02-24T05:22:09;11.50;80.20
488;DHT22;16586;48.976;9.584;2023-02-24T05:24:36;11.30;79.10
488;DHT22;16586;48.976;9.584;2023-02-24T05:27:04;11.20;80.30
488;DHT22;16586;48.976;9.584;2023-02-24T05:29:33;11.00;77.80
488;DHT22;16586;48.976;9.584;2023-02-24T05:32:02;10.90;76.70
488;DHT22;16586;48.976;9.584;2023-02-24T05:34:31;11.60;80.20
488;DHT22;16586;48.976;9.584;2023-02-24T05:37:00;10.90;76.90
488;DHT22;16586;48.976;9.584;2023-02-24T05:39:29;11.10;78.20
488;DHT22;16586;48.976;9.584;2023-02-24T05:41:56;11.10;78.50
488;DHT22;16586;48.976;9.584;2023-02-24T05:44:25;11.20;77.30
488;DHT22;16586;48.976;9.584;2023-02-24T05:46:53;11.00;77.10
488;DHT22;16586;48.976;9.584;2023-02-24T05:49:24;11.50;78.10
488;DHT22;16586;48.976;9.584;2023-02-24T05:51:53;10.90;77.30
488;DHT22;16586;48.976;9.584;2023-02-24T05:54:23;11.40;78.30
488;DHT22;16586;48.976;9.584;2023-02-24T05:56:50;10.90;77.10
488;DHT22;16586;48.976;9.584;2023-02-24T05:59:17;11.30;79.10
488;DHT22;16586;48.976;9.584;2023-02-24T06:01:48;11.50;79.40
488;DHT22;16586;48.976;9.584;2023-02-24T06:04:17;11.00;79.50
488;DHT22;16586;48.976;9.584;2023-02-24T06:07:04;11.00;78.00
488;DHT22;16586;48.976;9.584;2023-02-24T06:09:31;11.20;78.20
488;DHT22;16586;48.976;9.584;2023-02-24T06:11:59;11.40;78.50
488;DHT22;16586;48.976;9.584;2023-02-24T06:14:27;10.90;77.40
488;DHT22;16586;48.976;9.584;2023-02-24T06:16:55;11.10;80.40
488;DHT22;16586;48.976;9.584;2023-02-24T06:19:23;11.50;78.60
488;DHT22;16586;48.976;9.584;2023-02-24T06:21:51;12.30;78.50
488;DHT22;16586;48.976;9.584;2023-02-24T06:24:18;11.00;76.60
488;DHT22;16586;48.976;9.584;2023-02-24T06:26:48;10.90;76.80
488;DHT22;16586;48.976;9.584;2023-02-24T06:29:18;11.00;76.50
488;DHT22;16586;48.976;9.584;2023-02-24T06:31:45;10.90;77.40
488;DHT22;16586;48.976;9.584;2023-02-24T06:34:15;10.90;76.90
488;DHT22;16586;48.976;9.584;2023-02-24T06:36:42;11.00;77.30
488;DHT22;16586;48.976;9.584;2023-02-24T06:39:09;11.60;78.90
488;DHT22;16586;48.976;9.584;2023-02-24T06:41:39;11.70;79.00
488;DHT22;16586;48.976;9.584;2023-02-24T06:44:07;11.80;78.00
488;DHT22;16586;48.976;9.584;2023-02-24T06:46:36;11.70;79.30
488;DHT22;16586;48.976;9.584;2023-02-24T06:49:03;11.40;80.70
488;DHT22;16586;48.976;9.584;2023-02-24T06:51:31;11.00;76.60
488;DHT22;16586;48.976;9.584;2023-02-24T06:53:58;11.40;79.00
488;DHT22;16586;48.976;9.584;2023-02-24T06:56:30;11.90;78.80
488;DHT22;16586;48.976;9.584;2023-02-24T06:59:03;11.20;77.20
488;DHT22;16586;48.976;9.584;2023-02-24T07:01:31;10.70;77.80
488;DHT22;16586;48.976;9.584;2023-02-24T07:04:01;11.00;78.40
488;DHT22;16586;48.976;9.584;2023-02-24T07:06:44;10.90;77.20
488;DHT22;16586;48.976;9.584;2023-02-24T07:09:14;11.00;78.30
488;DHT22;16586;48.976;9.584;2023-02-24T07:11:43;11.00;76.30
488;DHT22;16586;48.976;9.584;2023-02-24T07:14:11;11.00;76.20
488;DHT22;16586;48.976;9.584;2023-02-24T07:16:39;11.20;77.50
488;DHT22;16586;48.976;9.584;2023-02-24T07:19:10;11.60;78.90
488;DHT22;16586;48.976;9.584;2023-02-24T07:24:10;11.10;77.40
488;DHT22;16586;48.976;9.584;2023-02-24T07:26:38;11.30;78.20
488;DHT22;16586;48.976;9.584;2023-02-24T07:29:07;11.10;77.10
488;DHT22;16586;48.976;9.584;2023-02-24T07:31:36;11.60;77.60
488;DHT22;16586;48.976;9.584;2023-02-24T07:34:03;11.60;78.00
488;DHT22;16586;48.976;9.584;2023-02-24T07:36:31;10.70;77.20
488;DHT22;16586;48.976;9.584;2023-02-24T07:39:04;11.10;78.60
488;DHT22;16586;48.976;9.584;2023-02-24T07:41:34;10.90;77.60
488;DHT22;16586;48.976;9.584;2023-02-24T07:44:02;11.50;80.30
488;DHT22;16586;48.976;9.584;2023-02-24T07:46:33;11.00;78.60
488;DHT22;16586;48.976;9.584;2023-02-24T07:49:00;11.00;77.20
488;DHT22;16586;48.976;9.584;2023-02-24T07:51:28;10.90;75.90
488;DHT22;16586;48.976;9.584;2023-02-24T07:53:59;10.90;77.20
488;DHT22;16586;48.976;9.584;2023-02-24T07:56:29;10.80;76.60
488;DHT22;16586;48.976;9.584;2023-02-24T07:59:00;11.40;77.40
488;DHT22;16586;48.976;9.584;2023-02-24T08:01:29;11.30;79.30
488;DHT22;16586;48.976;9.584;2023-02-24T08:04:04;11.00;77.90
488;DHT22;16586;48.976;9.584;2023-02-24T08:06:34;11.50;77.90
488;DHT22;16586;48.976;9.584;2023-02-24T08:09:05;11.30;77.50
488;DHT22;16586;48.976;9.584;2023-02-24T08:11:42;11.00;77.90
488;DHT22;16586;48.976;9.584;2023-02-24T08:14:12;11.70;77.60
488;DHT22;16586;48.976;9.584;2023-02-24T08:16:40;11.10;77.50
488;DHT22;16586;48.976;9.584;2023-02-24T08:19:09;11.60;76.80
488;DHT22;16586;48.976;9.584;2023-02-24T08:21:38;11.20;75.40
488;DHT22;16586;48.976;9.584;2023-02-24T08:24:06;11.50;78.50
488;DHT22;16586;48.976;9.584;2023-02-24T08:26:42;11.70;77.00
488;DHT22;16586;48.976;9.584;2023-02-24T08:29:11;11.70;76.70
488;DHT22;16586;48.976;9.584;2023-02-24T08:31:38;11.30;76.50
488;DHT22;16586;48.976;9.584;2023-02-24T08:34:05;11.00;74.90
488;DHT22;16586;48.976;9.584;2023-02-24T08:36:32;11.50;78.80
488;DHT22;16586;48.976;9.584;2023-02-24T08:38:58;11.70;79.50
488;DHT22;16586;48.976;9.584;2023-02-24T08:41:25;11.90;79.30
488;DHT22;16586;48.976;9.584;2023-02-24T08:44:12;11.20;76.20
488;DHT22;16586;48.976;9.584;2023-02-24T08:46:43;11.40;75.90
488;DHT22;16586;48.976;9.584;2023-02-24T08:49:14;11.80;79.00
488;DHT22;16586;48.976;9.584;2023-02-24T08:51:42;11.50;77.90
488;DHT22;16586;48.976;9.584;2023-02-24T08:54:13;10.90;75.90
488;DHT22;16586;48.976;9.584;2023-02-24T08:56:44;11.20;76.50
488;DHT22;16586;48.976;9.584;2023-02-24T08:59:16;10.90;76.50
488;DHT22;16586;48.976;9.584;2023-02-24T09:02:03;10.90;77.90
488;DHT22;16586;48.976;9.584;2023-02-24T09:04:53;12.50;78.70
488;DHT22;16586;48.976;9.584;2023-02-24T09:07:21;10.90;77.30
488;DHT22;16586;48.976;9.584;2023-02-24T09:09:49;11.00;75.40
488;DHT22;16586;48.976;9.584;2023-02-24T09:12:21;10.90;77.90
488;DHT22;16586;48.976;9.584;2023-02-24T09:14:51;10.90;76.00
488;DHT22;16586;48.976;9.584;2023-02-24T09:17:21;11.60;78.60
488;DHT22;16586;48.976;9.584;2023-02-24T09:20:06;11.00;76.70
488;DHT22;16586;48.976;9.584;2023-02-24T09:22:51;11.40;77.00
488;DHT22;16586;48.976;9.584;2023-02-24T09:25:28;11.50;77.00
488;DHT22;16586;48.976;9.584;2023-02-24T09:28:07;11.10;77.40
488;DHT22;16586;48.976;9.584;2023-02-24T09:30:38;11.20;77.20
488;DHT22;16586;48.976;9.584;2023-02-24T09:33:17;11.20;76.60
488;DHT22;16586;48.976;9.584;2023-02-24T09:35:47;12.10;78.70
488;DHT22;16586;48.976;9.584;2023-02-24T09:38:16;11.20;75.30
488;DHT22;16586;48.976;9.584;2023-02-24T09:40:45;11.20;75.00
488;DHT22;16586;48.976;9.584;2023-02-24T09:43:19;11.20;74.50
488;DHT22;16586;48.976;9.584;2023-02-24T09:45:58;11.20;75.20
488;DHT22;16586;48.976;9.584;2023-02-24T09:48:32;11.50;75.60
488;DHT22;16586;48.976;9.584;2023-02-24T09:51:11;11.50;75.70
488;DHT22;16586;48.976;9.584;2023-02-24T09:53:46;11.10;74.90
488;DHT22;16586;48.976;9.584;2023-02-24T09:56:24;11.60;77.20
488;DHT22;16586;48.976;9.584;2023-02-24T09:59:00;11.40;74.50
488;DHT22;16586;48.976;9.584;2023-02-24T10:01:53;10.90;74.70
488;DHT22;16586;48.976;9.584;2023-02-24T10:04:49;11.60;76.20
488;DHT22;16586;48.976;9.584;2023-02-24T10:07:24;11.20;74.50
488;DHT22;16586;48.976;9.584;2023-02-24T10:09:55;11.20;76.40
488;DHT22;16586;48.976;9.584;2023-02-24T10:12:50;10.90;75.70
488;DHT22;16586;48.976;9.584;2023-02-24T10:15:20;11.10;74.00
488;DHT22;16586;48.976;9.584;2023-02-24T10:18:38;11.50;76.50
488;DHT22;16586;48.976;9.584;2023-02-24T10:21:18;11.10;74.80
488;DHT22;16586;48.976;9.584;2023-02-24T10:24:03;11.10;73.90
488;DHT22;16586;48.976;9.584;2023-02-24T10:26:36;11.00;73.90
488;DHT22;16586;48.976;9.584;2023-02-24T10:29:19;10.90;75.20
488;DHT22;16586;48.976;9.584;2023-02-24T10:32:00;11.40;75.20
488;DHT22;16586;48.976;9.584;2023-02-24T10:34:32;11.10;74.90
488;DHT22;16586;48.976;9.584;2023-02-24T10:37:01;11.60;74.50
488;DHT22;16586;48.976;9.584;2023-02-24T10:39:31;11.00;74.40
488;DHT22;16586;48.976;9.584;2023-02-24T10:41:59;11.60;75.20
488;DHT22;16586;48.976;9.584;2023-02-24T10:44:40;11.40;73.40
488;DHT22;16586;48.976;9.584;2023-02-24T10:47:18;11.10;72.20
488;DHT22;16586;48.976;9.584;2023-02-24T10:49:47;11.70;73.10
488;DHT22;16586;48.976;9.584;2023-02-24T10:52:27;11.10;72.00
488;DHT22;16586;48.976;9.584;2023-02-24T10:55:22;11.00;71.70
488;DHT22;16586;48.976;9.584;2023-02-24T10:58:19;11.20;72.80
488;DHT22;16586;48.976;9.584;2023-02-24T11:00:54;11.80;73.30
488;DHT22;16586;48.976;9.584;2023-02-24T11:03:38;11.10;72.30
488;DHT22;16586;48.976;9.584;2023-02-24T11:06:20;11.70;73.40
488;DHT22;16586;48.976;9.584;2023-02-24T11:09:14;11.20;71.90
488;DHT22;16586;48.976;9.584;2023-02-24T11:11:58;11.40;72.50
488;DHT22;16586;48.976;9.584;2023-02-24T11:14:48;11.70;72.20
488;DHT22;16586;48.976;9.584;2023-02-24T11:17:35;11.40;71.70
488;DHT22;16586;48.976;9.584;2023-02-24T11:20:04;11.40;70.60
488;DHT22;16586;48.976;9.584;2023-02-24T11:22:38;12.10;72.60
488;DHT22;16586;48.976;9.584;2023-02-24T11:25:12;11.90;71.90
488;DHT22;16586;48.976;9.584;2023-02-24T11:27:40;11.90;71.70
488;DHT22;16586;48.976;9.584;2023-02-24T11:30:14;11.80;71.90
488;DHT22;16586;48.976;9.584;2023-02-24T11:33:01;11.80;71.40
488;DHT22;16586;48.976;9.584;2023-02-24T11:35:36;11.70;71.70
488;DHT22;16586;48.976;9.584;2023-02-24T11:38:15;12.00;72.20
488;DHT22;16586;48.976;9.584;2023-02-24T11:41:02;11.70;72.90
488;DHT22;16586;48.976;9.584;2023-02-24T11:43:33;11.40;71.00
488;DHT22;16586;48.976;9.584;2023-02-24T11:46:04;12.00;72.40
488;DHT22;16586;48.976;9.584;2023-02-24T11:48:37;11.50;72.00
488;DHT22;16586;48.976;9.584;2023-02-24T11:51:08;12.20;74.60
488;DHT22;16586;48.976;9.584;2023-02-24T11:53:42;11.50;72.90
488;DHT22;16586;48.976;9.584;2023-02-24T11:56:15;11.70;70.50
488;DHT22;16586;48.976;9.584;2023-02-24T11:58:49;12.30;72.40
488;DHT22;16586;48.976;9.584;2023-02-24T12:01:21;11.70;71.20
488;DHT22;16586;48.976;9.584;2023-02-24T12:03:54;12.30;71.10
488;DHT22;16586;48.976;9.584;2023-02-24T12:06:28;12.30;70.80
488;DHT22;16586;48.976;9.584;2023-02-24T12:09:02;11.70;70.10
488;DHT22;16586;48.976;9.584;2023-02-24T12:11:41;11.70;70.10
488;DHT22;16586;48.976;9.584;2023-02-24T12:14:31;12.00;70.40
488;DHT22;16586;48.976;9.584;2023-02-24T12:17:03;12.00;70.30
488;DHT22;16586;48.976;9.584;2023-02-24T12:19:42;12.30;70.40
488;DHT22;16586;48.976;9.584;2023-02-24T12:22:16;11.80;70.10
488;DHT22;16586;48.976;9.584;2023-02-24T12:24:48;12.30;70.30
488;DHT22;16586;48.976;9.584;2023-02-24T12:27:25;12.40;69.70
488;DHT22;16586;48.976;9.584;2023-02-24T12:30:25;12.00;69.10
488;DHT22;16586;48.976;9.584;2023-02-24T12:33:06;12.30;70.40
488;DHT22;16586;48.976;9.584;2023-02-24T12:35:40;12.60;67.60
488;DHT22;16586;48.976;9.584;2023-02-24T12:38:29;13.80;69.60
488;DHT22;16586;48.976;9.584;2023-02-24T12:41:13;13.10;66.70
488;DHT22;16586;48.976;9.584;2023-02-24T12:43:46;13.20;66.20
488;DHT22;16586;48.976;9.584;2023-02-24T12:46:22;12.90;65.20
488;DHT22;16586;48.976;9.584;2023-02-24T12:49:03;13.30;66.10
488;DHT22;16586;48.976;9.584;2023-02-24T12:51:40;13.20;65.30
488;DHT22;16586;48.976;9.584;2023-02-24T12:54:17;13.80;67.80
488;DHT22;16586;48.976;9.584;2023-02-24T12:56:53;14.20;67.80
488;DHT22;16586;48.976;9.584;2023-02-24T12:59:25;13.00;65.70
488;DHT22;16586;48.976;9.584;2023-02-24T13:01:58;13.60;66.50
488;DHT22;16586;48.976;9.584;2023-02-24T13:04:36;13.30;64.60
488;DHT22;16586;48.976;9.584;2023-02-24T13:07:14;13.70;64.50
488;DHT22;16586;48.976;9.584;2023-02-24T13:09:50;14.00;64.20
488;DHT22;16586;48.976;9.584;2023-02-24T13:12:28;13.70;63.80
488;DHT22;16586;48.976;9.584;2023-02-24T13:14:58;13.90;63.70
488;DHT22;16586;48.976;9.584;2023-02-24T13:17:25;14.00;64.60
488;DHT22;16586;48.976;9.584;2023-02-24T13:19:53;14.30;64.80
488;DHT22;16586;48.976;9.584;2023-02-24T13:22:24;13.50;62.70
488;DHT22;16586;48.976;9.584;2023-02-24T13:24:57;13.60;63.80
488;DHT22;16586;48.976;9.584;2023-02-24T13:27:27;14.10;62.60
488;DHT22;16586;48.976;9.584;2023-02-24T13:29:56;13.40;60.80
488;DHT22;16586;48.976;9.584;2023-02-24T13:32:28;13.30;62.50
488;DHT22;16586;48.976;9.584;2023-02-24T13:34:58;13.70;63.10
488;DHT22;16586;48.976;9.584;2023-02-24T13:37:31;13.40;62.10
488;DHT22;16586;48.976;9.584;2023-02-24T13:39:59;13.40;62.40
488;DHT22;16586;48.976;9.584;2023-02-24T13:42:28;13.20;63.20
488;DHT22;16586;48.976;9.584;2023-02-24T13:45:03;13.40;63.70
488;DHT22;16586;48.976;9.584;2023-02-24T13:47:56;14.40;63.80
488;DHT22;16586;48.976;9.584;2023-02-24T13:50:28;13.30;62.30
488;DHT22;16586;48.976;9.584;2023-02-24T13:53:12;13.20;62.60
488;DHT22;16586;48.976;9.584;2023-02-24T13:56:09;13.50;63.40
488;DHT22;16586;48.976;9.584;2023-02-24T13:58:56;13.60;64.30
488;DHT22;16586;48.976;9.584;2023-02-24T14:01:29;13.20;62.70
488;DHT22;16586;48.976;9.584;2023-02-24T14:04:05;13.10;62.00
488;DHT22;16586;48.976;9.584;2023-02-24T14:06:45;13.00;63.80
488;DHT22;16586;48.976;9.584;2023-02-24T14:09:16;13.50;63.50
488;DHT22;16586;48.976;9.584;2023-02-24T14:11:49;12.90;62.50
488;DHT22;16586;48.976;9.584;2023-02-24T14:14:18;12.90;63.80
488;DHT22;16586;48.976;9.584;2023-02-24T14:16:48;12.70;63.60
488;DHT22;16586;48.976;9.584;2023-02-24T14:19:16;12.60;62.50
488;DHT22;16586;48.976;9.584;2023-02-24T14:21:49;12.50;64.40
488;DHT22;16586;48.976;9.584;2023-02-24T14:24:16;12.70;64.50
488;DHT22;16586;48.976;9.584;2023-02-24T14:26:46;12.50;64.00
488;DHT22;16586;48.976;9.584;2023-02-24T14:29:15;12.50;63.80
488;DHT22;16586;48.976;9.584;2023-02-24T14:31:47;12.40;63.80
488;DHT22;16586;48.976;9.584;2023-02-24T14:34:18;14.40;67.90
488;DHT22;16586;48.976;9.584;2023-02-24T14:36:46;12.40;64.10
488;DHT22;16586;48.976;9.584;2023-02-24T14:39:17;12.60;64.40
488;DHT22;16586;48.976;9.584;2023-02-24T14:41:44;12.60;64.90
488;DHT22;16586;48.976;9.584;2023-02-24T14:44:18;12.60;65.90
488;DHT22;16586;48.976;9.584;2023-02-24T14:46:48;12.00;65.60
488;DHT22;16586;48.976;9.584;2023-02-24T14:49:18;12.10;65.80
488;DHT22;16586;48.976;9.584;2023-02-24T14:51:46;12.50;65.80
488;DHT22;16586;48.976;9.584;2023-02-24T14:54:21;12.60;65.40
488;DHT22;16586;48.976;9.584;2023-02-24T14:56:51;12.40;66.80
488;DHT22;16586;48.976;9.584;2023-02-24T14:59:22;12.10;66.60
488;DHT22;16586;48.976;9.584;2023-02-24T15:01:55;12.00;65.40
488;DHT22;16586;48.976;9.584;2023-02-24T15:04:29;11.80;66.70
488;DHT22;16586;48.976;9.584;2023-02-24T15:06:57;12.40;66.30
488;DHT22;16586;48.976;9.584;2023-02-24T15:09:26;12.20;66.40
488;DHT22;16586;48.976;9.584;2023-02-24T15:11:54;11.60;65.10
488;DHT22;16586;48.976;9.584;2023-02-24T15:14:23;11.60;65.20
488;DHT22;16586;48.976;9.584;2023-02-24T15:16:51;11.60;66.70
488;DHT22;16586;48.976;9.584;2023-02-24T15:19:29;12.20;66.90
488;DHT22;16586;48.976;9.584;2023-02-24T15:21:57;11.60;66.90
488;DHT22;16586;48.976;9.584;2023-02-24T15:24:26;12.10;67.80
488;DHT22;16586;48.976;9.584;2023-02-24T15:26:55;11.90;67.30
488;DHT22;16586;48.976;9.584;2023-02-24T15:29:24;11.60;67.00
488;DHT22;16586;48.976;9.584;2023-02-24T15:31:52;12.40;68.50
488;DHT22;16586;48.976;9.584;2023-02-24T15:34:22;12.10;67.90
488;DHT22;16586;48.976;9.584;2023-02-24T15:36:54;12.30;67.50
488;DHT22;16586;48.976;9.584;2023-02-24T15:39:25;12.20;68.70
488;DHT22;16586;48.976;9.584;2023-02-24T15:42:05;12.70;68.80
488;DHT22;16586;48.976;9.584;2023-02-24T15:44:34;12.00;67.30
488;DHT22;16586;48.976;9.584;2023-02-24T15:47:20;11.70;65.40
488;DHT22;16586;48.976;9.584;2023-02-24T15:49:48;11.60;65.30
488;DHT22;16586;48.976;9.584;2023-02-24T15:52:18;11.50;64.00
488;DHT22;16586;48.976;9.584;2023-02-24T15:54:46;12.10;66.50
488;DHT22;16586;48.976;9.584;2023-02-24T15:57:14;11.90;65.90
488;DHT22;16586;48.976;9.584;2023-02-24T15:59:42;11.60;64.30
488;DHT22;16586;48.976;9.584;2023-02-24T16:02:11;11.50;65.40
488;DHT22;16586;48.976;9.584;2023-02-24T16:04:40;11.60;64.10
488;DHT22;16586;48.976;9.584;2023-02-24T16:07:09;11.60;64.30
488;DHT22;16586;48.976;9.584;2023-02-24T16:09:39;11.60;63.80
488;DHT22;16586;48.976;9.584;2023-02-24T16:12:10;11.70;65.00
488;DHT22;16586;48.976;9.584;2023-02-24T16:14:39;12.10;66.10
488;DHT22;16586;48.976;9.584;2023-02-24T16:17:12;11.80;65.90
488;DHT22;16586;48.976;9.584;2023-02-24T16:19:42;11.80;65.70
488;DHT22;16586;48.976;9.584;2023-02-24T16:22:09;12.10;66.40
488;DHT22;16586;48.976;9.584;2023-02-24T16:24:37;11.40;66.60
488;DHT22;16586;48.976;9.584;2023-02-24T16:27:04;11.70;65.90
488;DHT22;16586;48.976;9.584;2023-02-24T16:29:31;11.30;67.50
488;DHT22;16586;48.976;9.584;2023-02-24T16:31:58;11.20;66.20
488;DHT22;16586;48.976;9.584;2023-02-24T16:34:25;11.20;66.70
488;DHT22;16586;48.976;9.584;2023-02-24T16:36:51;11.60;67.20
488;DHT22;16586;48.976;9.584;2023-02-24T16:39:18;11.60;67.40
488;DHT22;16586;48.976;9.584;2023-02-24T16:41:46;11.70;68.20